createdAt,value
2022-08-10T00:01:52.920Z,13.25
2022-08-10T00:04:23.052Z,10.70
2022-08-10T00:06:53.368Z,11.23
2022-08-10T00:09:24.042Z,9.70
2022-08-10T00:11:52.631Z,9.77
2022-08-10T00:14:21.176Z,12.63
2022-08-10T00:16:49.607Z,13.55
2022-08-10T00:19:18.438Z,10.18
2022-08-10T00:21:48.197Z,12.43
2022-08-10T00:24:16.852Z,9.50
2022-08-10T00:27:52.984Z,9.90
2022-08-10T00:29:35.340Z,13.13
2022-08-10T00:32:04.624Z,9.65
2022-08-10T00:34:34.726Z,20.75
2022-08-10T00:37:03.488Z,11.23
2022-08-10T00:39:36.214Z,9.40
2022-08-10T00:42:08.976Z,12.93
2022-08-10T00:44:38.513Z,13.55
2022-08-10T00:47:17.466Z,11.70
2022-08-10T00:49:56.669Z,21.30
2022-08-10T00:52:26.801Z,16.83
2022-08-10T00:54:56.810Z,13.55
2022-08-10T00:57:26.807Z,14.60
2022-08-10T00:59:59.340Z,12.90
2022-08-10T01:02:30.968Z,21.90
2022-08-10T01:05:02.744Z,15.10
2022-08-10T01:07:45.252Z,12.57
2022-08-10T01:10:25.445Z,12.60
2022-08-10T01:13:02.633Z,13.30
2022-08-10T01:15:37.706Z,13.18
2022-08-10T01:18:10.568Z,15.52
2022-08-10T01:20:43.536Z,11.95
2022-08-10T01:23:27.480Z,13.85
2022-08-10T01:26:10.517Z,12.75
2022-08-10T01:28:57.307Z,13.25
2022-08-10T01:31:39.690Z,12.05
2022-08-10T01:34:13.466Z,14.40
2022-08-10T01:36:46.906Z,10.85
2022-08-10T01:39:25.197Z,11.45
2022-08-10T01:41:57.647Z,12.07
2022-08-10T01:44:30.570Z,14.00
2022-08-10T01:47:22.602Z,14.68
2022-08-10T01:49:57.322Z,13.00
2022-08-10T01:52:28.977Z,10.07
2022-08-10T01:54:59.577Z,14.18
2022-08-10T01:57:32.548Z,15.43
2022-08-10T02:00:03.697Z,11.35
2022-08-10T02:02:39.227Z,10.98
2022-08-10T02:05:10.041Z,14.02
2022-08-10T02:07:40.402Z,15.60
2022-08-10T02:10:12.987Z,15.57
2022-08-10T02:12:44.250Z,12.85
2022-08-10T02:15:17.720Z,13.00
2022-08-10T02:17:57.732Z,15.63
2022-08-10T02:20:33.695Z,14.20
2022-08-10T02:23:04.038Z,14.70
2022-08-10T02:25:41.067Z,14.57
2022-08-10T02:28:27.105Z,15.02
2022-08-10T02:31:01.379Z,18.27
2022-08-10T02:33:32.530Z,13.50
2022-08-10T02:36:07.751Z,19.67
2022-08-10T02:38:58.158Z,13.82
2022-08-10T02:45:02.413Z,14.48
2022-08-10T02:45:16.272Z,14.98
2022-08-10T02:47:23.184Z,19.75
2022-08-10T02:50:00.741Z,18.67
2022-08-10T02:52:37.353Z,19.45
2022-08-10T02:55:18.409Z,15.00
2022-08-10T02:58:13.378Z,15.85
2022-08-10T03:00:44.330Z,13.45
2022-08-10T03:03:19.801Z,16.27
2022-08-10T03:05:54.316Z,15.30
2022-08-10T03:08:28.510Z,18.33
2022-08-10T03:11:00.718Z,20.77
2022-08-10T03:13:30.429Z,16.13
2022-08-10T03:16:00.137Z,15.60
2022-08-10T03:18:30.734Z,17.55
2022-08-10T03:21:01.197Z,17.08
2022-08-10T03:23:29.784Z,19.40
2022-08-10T03:26:00.008Z,16.10
2022-08-10T03:28:30.553Z,19.92
2022-08-10T03:31:01.307Z,14.55
2022-08-10T03:33:34.428Z,18.33
2022-08-10T03:36:44.155Z,17.00
2022-08-10T03:38:53.544Z,14.68
2022-08-10T03:41:29.762Z,16.23
2022-08-10T03:44:06.140Z,21.90
2022-08-10T03:46:37.259Z,23.33
2022-08-10T03:49:07.132Z,15.32
2022-08-10T03:51:37.886Z,18.75
2022-08-10T03:54:07.665Z,15.70
2022-08-10T03:56:38.857Z,16.13
2022-08-10T03:59:10.043Z,17.63
2022-08-10T04:02:45.056Z,15.68
2022-08-10T04:04:27.897Z,11.30
2022-08-10T04:06:59.702Z,11.77
2022-08-10T04:09:54.440Z,16.73
2022-08-10T04:12:18.866Z,12.13
2022-08-10T04:14:50.563Z,13.45
2022-08-10T04:17:59.446Z,9.52
2022-08-10T04:20:19.643Z,11.68
2022-08-10T04:22:53.245Z,11.00
2022-08-10T04:25:23.730Z,10.55
2022-08-10T04:27:52.712Z,13.43
2022-08-10T04:30:21.623Z,12.15
2022-08-10T04:32:53.672Z,11.23
2022-08-10T04:35:23.958Z,13.20
2022-08-10T04:37:56.844Z,11.75
2022-08-10T04:40:30.205Z,9.30
2022-08-10T04:43:05.759Z,13.38
2022-08-10T04:45:49.283Z,12.27
2022-08-10T04:48:40.723Z,11.73
2022-08-10T04:51:18.302Z,10.73
2022-08-10T04:54:02.784Z,15.90
2022-08-10T04:56:35.916Z,8.50
2022-08-10T04:59:05.892Z,11.57
2022-08-10T05:02:21.274Z,13.35
2022-08-10T05:04:36.351Z,13.05
2022-08-10T05:07:09.087Z,14.93
2022-08-10T05:10:02.781Z,14.10
2022-08-10T05:12:28.232Z,13.52
2022-08-10T05:14:56.715Z,9.77
2022-08-10T05:17:25.394Z,8.43
2022-08-10T05:20:03.172Z,11.82
2022-08-10T05:22:37.753Z,8.13
2022-08-10T05:25:10.004Z,8.02
2022-08-10T05:27:40.291Z,10.52
2022-08-10T05:30:10.584Z,15.38
2022-08-10T05:32:59.062Z,12.95
2022-08-10T05:35:28.403Z,9.70
2022-08-10T05:38:12.443Z,7.93
2022-08-10T05:40:46.488Z,14.00
2022-08-10T05:43:20.880Z,12.50
2022-08-10T05:46:17.572Z,10.02
2022-08-10T05:48:58.977Z,11.35
2022-08-10T05:51:30.328Z,12.10
2022-08-10T05:54:04.741Z,8.63
2022-08-10T05:56:55.441Z,14.95
2022-08-10T06:00:10.886Z,11.80
2022-08-10T06:02:33.399Z,16.77
2022-08-10T06:05:09.321Z,9.70
2022-08-10T06:07:42.210Z,10.02
2022-08-10T06:10:31.067Z,15.25
2022-08-10T06:13:30.040Z,8.27
2022-08-10T06:16:03.737Z,9.85
2022-08-10T06:18:32.766Z,14.00
2022-08-10T06:21:01.724Z,10.35
2022-08-10T06:23:30.812Z,11.32
2022-08-10T06:26:10.866Z,10.57
2022-08-10T06:29:02.240Z,6.55
2022-08-10T06:31:48.265Z,14.73
2022-08-10T06:34:23.643Z,12.82
2022-08-10T06:36:54.295Z,11.05
2022-08-10T06:39:33.412Z,10.93
2022-08-10T06:42:15.160Z,7.40
2022-08-10T06:44:53.339Z,9.52
2022-08-10T06:47:24.609Z,10.82
2022-08-10T06:49:59.765Z,6.20
2022-08-10T06:52:31.811Z,8.38
2022-08-10T06:55:05.452Z,7.03
2022-08-10T06:57:39.996Z,9.05
2022-08-10T07:00:11.288Z,10.13
2022-08-10T07:02:45.932Z,10.88
2022-08-10T07:05:20.153Z,10.23
2022-08-10T07:07:51.052Z,9.63
2022-08-10T07:10:21.944Z,9.30
2022-08-10T07:12:53.803Z,9.18
2022-08-10T07:15:25.068Z,7.45
2022-08-10T07:18:13.898Z,12.80
2022-08-10T07:20:45.355Z,8.18
2022-08-10T07:23:56.059Z,8.25
2022-08-10T07:26:06.135Z,7.93
2022-08-10T07:28:36.045Z,7.57
2022-08-10T07:31:54.860Z,10.48
2022-08-10T07:33:59.789Z,11.90
2022-08-10T07:36:30.317Z,10.45
2022-08-10T07:39:01.093Z,8.05
2022-08-10T07:41:32.156Z,9.95
2022-08-10T07:44:03.139Z,10.35
2022-08-10T07:46:35.958Z,11.82
2022-08-10T07:49:19.568Z,7.68
2022-08-10T07:51:54.691Z,6.97
2022-08-10T07:54:26.561Z,6.43
2022-08-10T07:57:00.484Z,8.07
2022-08-10T07:59:36.955Z,6.10
2022-08-10T08:02:09.833Z,9.25
2022-08-10T08:04:38.768Z,7.60
2022-08-10T08:07:08.772Z,5.10
2022-08-10T08:09:39.275Z,9.50
2022-08-10T08:12:28.326Z,12.95
2022-08-10T08:15:00.881Z,8.82
2022-08-10T08:17:59.869Z,8.57
2022-08-10T08:20:30.305Z,5.45
2022-08-10T08:24:10.167Z,7.10
2022-08-10T08:25:49.794Z,6.03
2022-08-10T08:28:18.998Z,7.93
2022-08-10T08:30:49.123Z,9.90
2022-08-10T08:33:41.235Z,8.32
2022-08-10T08:36:10.209Z,6.07
2022-08-10T08:38:39.414Z,5.30
2022-08-10T08:41:18.772Z,6.20
2022-08-10T08:43:55.217Z,6.00
2022-08-10T08:46:44.988Z,6.47
2022-08-10T08:50:07.879Z,3.63
2022-08-10T08:52:39.583Z,5.75
2022-08-10T08:56:02.850Z,6.90
2022-08-10T08:58:46.959Z,4.22
2022-08-10T09:01:46.280Z,6.13
2022-08-10T09:04:34.255Z,7.32
2022-08-10T09:08:01.005Z,6.68
2022-08-10T09:10:27.622Z,5.68
2022-08-10T09:13:02.469Z,4.28
2022-08-10T09:15:40.713Z,4.50
2022-08-10T09:18:20.166Z,4.07
2022-08-10T09:20:55.003Z,5.95
2022-08-10T09:24:05.508Z,6.78
2022-08-10T09:26:21.664Z,11.30
2022-08-10T09:29:11.554Z,7.35
2022-08-10T09:33:05.590Z,5.47
2022-08-10T09:36:23.359Z,6.30
2022-08-10T09:38:01.298Z,6.65
2022-08-10T09:41:00.161Z,5.28
2022-08-10T09:43:39.943Z,6.65
2022-08-10T09:46:15.487Z,11.30
2022-08-10T09:48:52.513Z,6.22
2022-08-10T09:51:46.012Z,5.25
2022-08-10T09:54:31.371Z,5.20
2022-08-10T09:57:54.835Z,8.40
2022-08-10T10:00:11.443Z,7.75
2022-08-10T10:02:59.999Z,4.57
2022-08-10T10:05:50.275Z,4.72
2022-08-10T10:08:33.490Z,6.75
2022-08-10T10:11:10.661Z,3.72
2022-08-10T10:14:02.652Z,5.18
2022-08-10T10:17:01.121Z,3.10
2022-08-10T10:19:44.079Z,5.10
2022-08-10T10:22:26.528Z,3.90
2022-08-10T10:25:19.574Z,3.55
2022-08-10T10:27:59.979Z,3.08
2022-08-10T10:30:37.691Z,3.65
2022-08-10T10:33:14.991Z,4.50
2022-08-10T10:35:52.310Z,3.40
2022-08-10T10:38:24.240Z,2.60
2022-08-10T10:41:01.730Z,3.45
2022-08-10T10:43:43.296Z,3.83
2022-08-10T10:46:24.069Z,7.93
2022-08-10T10:49:00.731Z,7.68
2022-08-10T10:51:35.050Z,3.70
2022-08-10T10:54:10.954Z,4.20
2022-08-10T10:56:50.469Z,4.03
2022-08-10T10:59:53.775Z,6.07
2022-08-10T11:02:28.771Z,5.53
2022-08-10T11:05:04.889Z,5.70
2022-08-10T11:07:39.351Z,3.00
2022-08-10T11:10:33.387Z,5.97
2022-08-10T11:14:27.498Z,3.92
2022-08-10T11:16:14.464Z,6.22
2022-08-10T11:18:56.339Z,6.15
2022-08-10T11:21:37.779Z,2.90
2022-08-10T11:24:48.700Z,5.68
2022-08-10T11:27:21.668Z,3.55
2022-08-10T11:30:00.211Z,3.13
2022-08-10T11:32:38.204Z,6.07
2022-08-10T11:35:18.730Z,3.20
2022-08-10T11:38:34.379Z,5.82
2022-08-10T11:40:52.358Z,3.78
2022-08-10T11:43:27.198Z,4.78
2022-08-10T11:46:08.020Z,8.23
2022-08-10T11:48:54.903Z,3.25
2022-08-10T11:51:33.679Z,3.28
2022-08-10T11:54:08.825Z,4.63
2022-08-10T11:56:45.749Z,4.68
2022-08-10T11:59:33.920Z,3.90
2022-08-10T12:02:03.309Z,4.15
2022-08-10T12:04:35.615Z,4.32
2022-08-10T12:08:10.342Z,4.43
2022-08-10T12:10:10.300Z,3.75
2022-08-10T12:12:46.921Z,7.97
2022-08-10T12:15:26.881Z,3.28
2022-08-10T12:17:59.950Z,4.65
2022-08-10T12:20:33.355Z,3.83
2022-08-10T12:23:09.121Z,3.20
2022-08-10T12:25:55.995Z,4.32
2022-08-10T12:28:50.446Z,4.13
2022-08-10T12:31:25.466Z,5.45
2022-08-10T12:34:07.867Z,6.50
2022-08-10T12:36:43.063Z,6.57
2022-08-10T12:39:17.540Z,8.55
2022-08-10T12:41:54.154Z,2.78
2022-08-10T12:44:42.345Z,3.85
2022-08-10T12:47:22.122Z,2.80
2022-08-10T12:50:26.619Z,4.13
2022-08-10T12:52:58.371Z,3.55
2022-08-10T12:55:28.910Z,3.88
2022-08-10T12:57:58.837Z,3.05
2022-08-10T13:00:35.115Z,3.47
2022-08-10T13:03:07.303Z,3.85
2022-08-10T13:06:00.282Z,3.83
2022-08-10T13:08:53.410Z,3.10
2022-08-10T13:12:34.333Z,2.65
2022-08-10T13:14:23.617Z,3.72
2022-08-10T13:16:56.345Z,10.02
2022-08-10T13:19:28.734Z,4.82
2022-08-10T13:22:18.732Z,5.13
2022-08-10T13:24:55.863Z,2.67
2022-08-10T13:28:02.445Z,3.97
2022-08-10T13:30:37.709Z,3.25
2022-08-10T13:33:08.463Z,4.38
2022-08-10T13:35:38.740Z,4.57
2022-08-10T13:38:09.901Z,2.90
2022-08-10T13:40:40.794Z,4.10
2022-08-10T13:43:11.415Z,4.57
2022-08-10T13:45:47.891Z,4.18
2022-08-10T13:48:21.017Z,3.60
2022-08-10T13:50:51.736Z,6.20
2022-08-10T13:53:21.947Z,3.45
2022-08-10T13:55:56.611Z,2.92
2022-08-10T13:58:29.193Z,3.00
2022-08-10T14:01:00.047Z,4.10
2022-08-10T14:03:34.768Z,8.52
2022-08-10T14:06:06.872Z,2.65
2022-08-10T14:08:36.933Z,3.47
2022-08-10T14:11:12.632Z,4.57
2022-08-10T14:13:46.640Z,4.43
2022-08-10T14:16:16.583Z,2.55
2022-08-10T14:18:46.151Z,2.05
2022-08-10T14:21:15.348Z,3.58
2022-08-10T14:23:52.076Z,2.83
2022-08-10T14:26:26.227Z,5.32
2022-08-10T14:28:58.285Z,5.00
2022-08-10T14:31:34.475Z,2.78
2022-08-10T14:34:05.899Z,4.30
2022-08-10T14:36:43.310Z,4.13
2022-08-10T14:39:20.754Z,2.47
2022-08-10T14:42:02.422Z,4.53
2022-08-10T14:44:46.131Z,4.10
2022-08-10T14:47:52.367Z,3.35
2022-08-10T14:50:07.592Z,2.95
2022-08-10T14:52:44.432Z,3.00
2022-08-10T14:55:19.446Z,8.45
2022-08-10T14:58:17.039Z,4.20
2022-08-10T15:00:43.105Z,3.25
2022-08-10T15:04:01.126Z,2.58
2022-08-10T15:06:17.225Z,2.83
2022-08-10T15:08:48.006Z,5.22
2022-08-10T15:12:13.444Z,5.57
2022-08-10T15:14:32.963Z,6.43
2022-08-10T15:17:00.620Z,4.07
2022-08-10T15:20:02.401Z,5.43
2022-08-10T15:22:37.082Z,3.45
2022-08-10T15:25:19.391Z,5.80
2022-08-10T15:27:56.374Z,3.83
2022-08-10T15:30:32.207Z,4.78
2022-08-10T15:33:57.742Z,6.53
2022-08-10T15:36:34.216Z,2.10
2022-08-10T15:39:04.986Z,4.00
2022-08-10T15:41:58.643Z,2.92
2022-08-10T15:44:38.842Z,4.57
2022-08-10T15:47:12.147Z,4.32
2022-08-10T15:49:51.757Z,4.38
2022-08-10T15:53:01.299Z,3.92
2022-08-10T15:55:44.248Z,3.95
2022-08-10T15:58:10.039Z,6.43
2022-08-10T16:00:44.422Z,3.72
2022-08-10T16:03:23.451Z,5.18
2022-08-10T16:06:01.681Z,5.32
2022-08-10T16:08:55.967Z,3.90
2022-08-10T16:11:38.370Z,2.10
2022-08-10T16:14:14.628Z,5.68
2022-08-10T16:16:46.911Z,4.22
2022-08-10T16:19:24.888Z,3.30
2022-08-10T16:21:59.986Z,2.55
2022-08-10T16:24:32.570Z,1.98
2022-08-10T16:27:04.914Z,2.65
2022-08-10T16:29:56.094Z,2.10
2022-08-10T16:32:25.351Z,2.08
2022-08-10T16:34:56.536Z,4.38
2022-08-10T16:37:57.754Z,1.77
2022-08-10T16:40:24.376Z,3.05
2022-08-10T16:42:54.427Z,3.03
2022-08-10T16:45:30.683Z,4.57
2022-08-10T16:48:00.140Z,4.43
2022-08-10T16:50:33.481Z,1.50
2022-08-10T16:53:03.549Z,4.30
2022-08-10T16:55:49.394Z,3.13
2022-08-10T16:58:27.508Z,4.90
2022-08-10T17:01:03.033Z,4.00
2022-08-10T17:04:06.943Z,3.28
2022-08-10T17:06:31.520Z,4.30
2022-08-10T17:09:01.925Z,2.25
2022-08-10T17:11:32.449Z,3.00
2022-08-10T17:14:03.181Z,4.47
2022-08-10T17:16:36.303Z,2.22
2022-08-10T17:19:09.675Z,6.22
2022-08-10T17:21:51.569Z,2.72
2022-08-10T17:24:24.135Z,2.05
2022-08-10T17:26:52.965Z,5.38
2022-08-10T17:29:58.026Z,3.15
2022-08-10T17:32:21.181Z,3.97
2022-08-10T17:34:54.140Z,2.67
2022-08-10T17:37:27.432Z,1.45
2022-08-10T17:40:02.343Z,2.17
2022-08-10T17:42:32.910Z,2.53
2022-08-10T17:45:02.293Z,1.60
2022-08-10T17:47:34.074Z,2.65
2022-08-10T17:50:02.890Z,4.93
2022-08-10T17:52:34.302Z,2.35
2022-08-10T17:55:06.076Z,9.02
2022-08-10T17:57:37.703Z,2.78
2022-08-10T18:00:10.370Z,4.38
2022-08-10T18:02:41.722Z,4.78
2022-08-10T18:05:12.679Z,3.70
2022-08-10T18:07:47.591Z,6.03
2022-08-10T18:10:21.030Z,8.93
2022-08-10T18:12:52.813Z,6.72
2022-08-10T18:15:29.571Z,4.60
2022-08-10T18:18:03.515Z,2.50
2022-08-10T18:20:37.739Z,4.32
2022-08-10T18:23:09.702Z,6.22
2022-08-10T18:25:41.661Z,3.45
2022-08-10T18:28:16.439Z,5.88
2022-08-10T18:30:49.314Z,4.22
2022-08-10T18:33:19.979Z,3.10
2022-08-10T18:35:53.762Z,9.15
2022-08-10T18:38:25.989Z,3.70
2022-08-10T18:40:59.728Z,7.97
2022-08-10T18:44:07.645Z,4.45
2022-08-10T18:46:29.520Z,5.35
2022-08-10T18:49:17.624Z,4.80
2022-08-10T18:51:49.346Z,5.30
2022-08-10T18:54:39.569Z,6.72
2022-08-10T18:57:28.831Z,6.28
2022-08-10T19:00:09.291Z,8.15
2022-08-10T19:03:01.140Z,6.97
2022-08-10T19:05:48.197Z,5.13
2022-08-10T19:08:49.584Z,3.30
2022-08-10T19:11:31.966Z,4.05
2022-08-10T19:14:04.967Z,4.40
2022-08-10T19:16:40.191Z,3.67
2022-08-10T19:19:23.057Z,3.33
2022-08-10T19:21:59.292Z,4.20
2022-08-10T19:24:35.166Z,7.10
2022-08-10T19:27:15.397Z,2.92
2022-08-10T19:30:09.857Z,5.65
2022-08-10T19:32:56.028Z,5.38
2022-08-10T19:36:04.515Z,2.90
2022-08-10T19:38:32.953Z,3.05
2022-08-10T19:41:11.888Z,4.75
2022-08-10T19:44:00.122Z,7.00
2022-08-10T19:46:40.641Z,3.42
2022-08-10T19:49:18.679Z,3.60
2022-08-10T19:51:56.647Z,4.15
2022-08-10T19:54:32.298Z,5.57
2022-08-10T19:57:08.622Z,4.85
2022-08-10T20:00:15.609Z,5.25
2022-08-10T20:03:00.799Z,5.75
2022-08-10T20:05:33.509Z,6.80
2022-08-10T20:08:10.847Z,3.60
2022-08-10T20:10:46.668Z,10.02
2022-08-10T20:13:22.481Z,2.83
2022-08-10T20:15:59.152Z,5.05
2022-08-10T20:18:33.885Z,4.07
2022-08-10T20:21:09.352Z,4.75
2022-08-10T20:23:41.184Z,8.15
2022-08-10T20:26:25.438Z,4.97
2022-08-10T20:29:05.181Z,3.33
2022-08-10T20:31:42.161Z,6.03
2022-08-10T20:34:18.000Z,3.95
2022-08-10T20:36:56.981Z,4.65
2022-08-10T20:39:40.197Z,4.63
2022-08-10T20:42:16.751Z,4.05
2022-08-10T20:45:00.099Z,6.65
2022-08-10T20:47:42.562Z,3.25
2022-08-10T20:50:30.851Z,4.47
2022-08-10T20:53:02.460Z,5.75
2022-08-10T20:55:46.748Z,3.38
2022-08-10T20:58:38.792Z,8.00
2022-08-10T21:01:17.492Z,3.60
2022-08-10T21:04:01.257Z,4.80
2022-08-10T21:07:01.924Z,7.28
2022-08-10T21:09:50.640Z,6.30
2022-08-10T21:12:59.061Z,4.88
2022-08-10T21:15:44.814Z,2.83
2022-08-10T21:18:30.645Z,4.80
2022-08-10T21:21:09.603Z,4.28
2022-08-10T21:23:48.177Z,5.38
2022-08-10T21:26:18.884Z,4.75
2022-08-10T21:29:13.454Z,12.82
2022-08-10T21:32:03.468Z,6.25
2022-08-10T21:35:01.157Z,3.08
2022-08-10T21:37:42.280Z,7.80
2022-08-10T21:40:35.287Z,4.45
2022-08-10T21:43:45.867Z,4.03
2022-08-10T21:46:54.772Z,6.55
2022-08-10T21:49:57.278Z,5.65
2022-08-10T21:53:04.196Z,5.47
2022-08-10T21:56:01.101Z,5.55
2022-08-10T21:58:52.543Z,7.13
2022-08-10T22:01:51.269Z,4.75
2022-08-10T22:04:40.208Z,3.92
2022-08-10T22:07:36.283Z,4.95
2022-08-10T22:10:25.589Z,5.07
2022-08-10T22:13:17.693Z,6.03
2022-08-10T22:16:12.347Z,7.72
2022-08-10T22:19:03.696Z,4.88
2022-08-10T22:22:04.538Z,6.85
2022-08-10T22:25:17.052Z,6.55
2022-08-10T22:28:12.465Z,6.60
2022-08-10T22:31:29.614Z,5.25
2022-08-10T22:34:32.197Z,5.57
2022-08-10T22:37:36.426Z,8.10
2022-08-10T22:40:29.331Z,11.05
2022-08-10T22:43:35.393Z,15.30
2022-08-10T22:46:29.897Z,13.00
2022-08-10T22:49:00.431Z,15.45
2022-08-10T22:51:50.072Z,15.68
2022-08-10T22:54:41.559Z,9.32
2022-08-10T22:57:32.295Z,7.93
2022-08-10T23:00:14.435Z,9.13
2022-08-10T23:02:51.417Z,7.20
2022-08-10T23:05:29.864Z,8.45
2022-08-10T23:08:04.685Z,7.00
2022-08-10T23:10:40.160Z,6.63
2022-08-10T23:13:12.016Z,6.68
2022-08-10T23:16:11.676Z,5.93
2022-08-10T23:19:00.637Z,7.55
2022-08-10T23:22:01.251Z,6.20
2022-08-10T23:24:28.745Z,13.52
2022-08-10T23:26:59.334Z,10.27
2022-08-10T23:30:03.661Z,11.73
2022-08-10T23:32:36.378Z,11.93
2022-08-10T23:36:27.187Z,13.30
2022-08-10T23:38:01.896Z,11.40
2022-08-10T23:40:30.786Z,10.65
2022-08-10T23:43:00.599Z,8.95
2022-08-10T23:45:52.228Z,10.35
2022-08-10T23:48:24.474Z,8.23
2022-08-10T23:51:01.591Z,9.18
2022-08-10T23:53:33.506Z,6.82
2022-08-10T23:56:06.894Z,9.13
2022-08-10T23:58:43.154Z,10.60
